sensor_id;sensor_type;location;lat;lon;timestamp;temperature;humidity
75010;DHT22;63564;46.840;18.336;2023-04-05T00:01:37;0.36;66.67
75010;DHT22;63564;46.840;18.336;2023-04-05T00:04:38;0.32;66.63
75010;DHT22;63564;46.840;18.336;2023-04-05T00:07:49;0.22;67.08
75010;DHT22;63564;46.840;18.336;2023-04-05T00:10:53;0.15;68.35
75010;DHT22;63564;46.840;18.336;2023-04-05T00:13:54;0.08;67.55
75010;DHT22;63564;46.840;18.336;2023-04-05T00:16:54;-0.01;68.45
75010;DHT22;63564;46.840;18.336;2023-04-05T00:19:55;0.01;67.01
75010;DHT22;63564;46.840;18.336;2023-04-05T00:22:56;-0.05;67.50
75010;DHT22;63564;46.840;18.336;2023-04-05T00:25:57;-0.05;66.73
75010;DHT22;63564;46.840;18.336;2023-04-05T00:28:57;-0.11;68.68
75010;DHT22;63564;46.840;18.336;2023-04-05T00:31:58;-0.13;67.66
75010;DHT22;63564;46.840;18.336;2023-04-05T00:34:58;-0.11;67.69
75010;DHT22;63564;46.840;18.336;2023-04-05T00:37:58;-0.09;66.71
75010;DHT22;63564;46.840;18.336;2023-04-05T00:40:59;-0.09;66.83
75010;DHT22;63564;46.840;18.336;2023-04-05T00:43:59;-0.16;66.67
75010;DHT22;63564;46.840;18.336;2023-04-05T00:47:04;-0.19;66.72
75010;DHT22;63564;46.840;18.336;2023-04-05T00:50:05;-0.22;66.95
75010;DHT22;63564;46.840;18.336;2023-04-05T00:53:06;-0.26;67.48
75010;DHT22;63564;46.840;18.336;2023-04-05T00:56:07;-0.25;67.52
75010;DHT22;63564;46.840;18.336;2023-04-05T00:59:09;-0.29;67.46
75010;DHT22;63564;46.840;18.336;2023-04-05T01:08:43;-0.40;68.27
75010;DHT22;63564;46.840;18.336;2023-04-05T01:11:46;-0.50;68.47
75010;DHT22;63564;46.840;18.336;2023-04-05T01:14:50;-0.44;67.66
75010;DHT22;63564;46.840;18.336;2023-04-05T01:17:51;-0.47;67.91
75010;DHT22;63564;46.840;18.336;2023-04-05T01:21:54;-0.56;68.92
75010;DHT22;63564;46.840;18.336;2023-04-05T01:24:43;-0.57;68.02
75010;DHT22;63564;46.840;18.336;2023-04-05T01:28:27;-0.57;68.61
75010;DHT22;63564;46.840;18.336;2023-04-05T01:31:41;-0.63;68.48
75010;DHT22;63564;46.840;18.336;2023-04-05T01:37:52;-0.68;68.22
75010;DHT22;63564;46.840;18.336;2023-04-05T01:40:55;-0.76;69.16
75010;DHT22;63564;46.840;18.336;2023-04-05T01:43:55;-0.84;70.15
75010;DHT22;63564;46.840;18.336;2023-04-05T01:46:56;-0.76;68.84
75010;DHT22;63564;46.840;18.336;2023-04-05T01:49:56;-0.76;69.42
75010;DHT22;63564;46.840;18.336;2023-04-05T01:52:57;-0.94;70.30
75010;DHT22;63564;46.840;18.336;2023-04-05T01:56:00;-0.97;70.48
75010;DHT22;63564;46.840;18.336;2023-04-05T01:59:00;-0.91;70.12
75010;DHT22;63564;46.840;18.336;2023-04-05T02:02:01;-0.95;69.85
75010;DHT22;63564;46.840;18.336;2023-04-05T02:05:01;-1.02;71.02
75010;DHT22;63564;46.840;18.336;2023-04-05T02:08:02;-1.02;71.00
75010;DHT22;63564;46.840;18.336;2023-04-05T02:11:02;-1.01;70.17
75010;DHT22;63564;46.840;18.336;2023-04-05T02:14:02;-1.08;71.51
75010;DHT22;63564;46.840;18.336;2023-04-05T02:17:03;-1.06;69.70
75010;DHT22;63564;46.840;18.336;2023-04-05T02:20:07;-1.09;70.73
75010;DHT22;63564;46.840;18.336;2023-04-05T02:23:08;-1.12;69.80
75010;DHT22;63564;46.840;18.336;2023-04-05T02:26:08;-1.11;69.81
75010;DHT22;63564;46.840;18.336;2023-04-05T02:29:08;-1.16;69.91
75010;DHT22;63564;46.840;18.336;2023-04-05T02:32:09;-1.18;70.49
75010;DHT22;63564;46.840;18.336;2023-04-05T02:35:10;-1.15;69.40
75010;DHT22;63564;46.840;18.336;2023-04-05T02:38:10;-1.13;69.39
75010;DHT22;63564;46.840;18.336;2023-04-05T02:41:11;-1.15;69.69
75010;DHT22;63564;46.840;18.336;2023-04-05T02:44:12;-1.13;69.07
75010;DHT22;63564;46.840;18.336;2023-04-05T02:47:12;-1.18;68.93
75010;DHT22;63564;46.840;18.336;2023-04-05T02:50:16;-1.16;69.76
75010;DHT22;63564;46.840;18.336;2023-04-05T02:53:19;-1.25;70.38
75010;DHT22;63564;46.840;18.336;2023-04-05T02:56:20;-1.28;70.47
75010;DHT22;63564;46.840;18.336;2023-04-05T02:59:21;-1.33;69.96
75010;DHT22;63564;46.840;18.336;2023-04-05T03:02:21;-1.33;70.38
75010;DHT22;63564;46.840;18.336;2023-04-05T03:05:22;-1.32;69.88
75010;DHT22;63564;46.840;18.336;2023-04-05T03:08:22;-1.32;70.39
75010;DHT22;63564;46.840;18.336;2023-04-05T03:11:23;-1.42;71.29
75010;DHT22;63564;46.840;18.336;2023-04-05T03:14:23;-1.50;71.45
75010;DHT22;63564;46.840;18.336;2023-04-05T03:17:23;-1.50;71.43
75010;DHT22;63564;46.840;18.336;2023-04-05T03:20:24;-1.49;70.92
75010;DHT22;63564;46.840;18.336;2023-04-05T03:23:29;-1.50;70.96
75010;DHT22;63564;46.840;18.336;2023-04-05T03:26:29;-1.53;70.89
75010;DHT22;63564;46.840;18.336;2023-04-05T03:29:32;-1.57;71.64
75010;DHT22;63564;46.840;18.336;2023-04-05T03:32:32;-1.62;71.50
75010;DHT22;63564;46.840;18.336;2023-04-05T03:35:33;-1.57;70.81
75010;DHT22;63564;46.840;18.336;2023-04-05T03:38:33;-1.56;70.08
75010;DHT22;63564;46.840;18.336;2023-04-05T03:41:34;-1.67;71.84
75010;DHT22;63564;46.840;18.336;2023-04-05T03:44:35;-1.64;71.82
75010;DHT22;63564;46.840;18.336;2023-04-05T03:47:35;-1.68;71.77
75010;DHT22;63564;46.840;18.336;2023-04-05T03:50:36;-1.75;72.23
75010;DHT22;63564;46.840;18.336;2023-04-05T03:53:36;-1.90;72.10
75010;DHT22;63564;46.840;18.336;2023-04-05T03:56:37;-1.84;71.48
75010;DHT22;63564;46.840;18.336;2023-04-05T03:59:37;-1.87;71.10
75010;DHT22;63564;46.840;18.336;2023-04-05T04:02:38;-1.83;71.61
75010;DHT22;63564;46.840;18.336;2023-04-05T04:05:39;-1.85;71.63
75010;DHT22;63564;46.840;18.336;2023-04-05T04:08:39;-1.92;71.68
75010;DHT22;63564;46.840;18.336;2023-04-05T04:11:39;-1.78;71.05
75010;DHT22;63564;46.840;18.336;2023-04-05T04:14:40;-1.78;70.95
75010;DHT22;63564;46.840;18.336;2023-04-05T04:17:41;-1.81;72.06
75010;DHT22;63564;46.840;18.336;2023-04-05T04:20:41;-1.95;72.09
75010;DHT22;63564;46.840;18.336;2023-04-05T04:23:42;-2.04;73.18
75010;DHT22;63564;46.840;18.336;2023-04-05T04:26:45;-1.95;72.23
75010;DHT22;63564;46.840;18.336;2023-04-05T04:29:46;-1.94;72.87
75010;DHT22;63564;46.840;18.336;2023-04-05T04:32:47;-1.87;72.84
75010;DHT22;63564;46.840;18.336;2023-04-05T04:35:52;-1.83;71.10
75010;DHT22;63564;46.840;18.336;2023-04-05T04:38:53;-1.75;70.96
75010;DHT22;63564;46.840;18.336;2023-04-05T04:41:54;-1.75;71.48
75010;DHT22;63564;46.840;18.336;2023-04-05T04:44:55;-1.73;70.19
75010;DHT22;63564;46.840;18.336;2023-04-05T04:47:57;-1.84;71.79
75010;DHT22;63564;46.840;18.336;2023-04-05T04:51:01;-1.77;72.59
75010;DHT22;63564;46.840;18.336;2023-04-05T04:54:01;-1.71;71.39
75010;DHT22;63564;46.840;18.336;2023-04-05T04:57:02;-1.75;71.71
75010;DHT22;63564;46.840;18.336;2023-04-05T05:00:02;-1.73;72.62
75010;DHT22;63564;46.840;18.336;2023-04-05T05:03:11;-1.63;72.44
75010;DHT22;63564;46.840;18.336;2023-04-05T05:06:15;-1.66;72.27
75010;DHT22;63564;46.840;18.336;2023-04-05T05:09:16;-1.64;72.12
75010;DHT22;63564;46.840;18.336;2023-04-05T05:12:18;-1.62;72.25
75010;DHT22;63564;46.840;18.336;2023-04-05T05:15:18;-1.59;71.82
75010;DHT22;63564;46.840;18.336;2023-04-05T05:18:19;-1.53;72.17
75010;DHT22;63564;46.840;18.336;2023-04-05T05:21:19;-1.43;70.62
75010;DHT22;63564;46.840;18.336;2023-04-05T05:24:20;-1.35;69.91
75010;DHT22;63564;46.840;18.336;2023-04-05T05:27:21;-1.29;70.46
75010;DHT22;63564;46.840;18.336;2023-04-05T05:30:22;-1.28;71.04
75010;DHT22;63564;46.840;18.336;2023-04-05T05:33:22;-1.15;68.98
75010;DHT22;63564;46.840;18.336;2023-04-05T05:36:23;-1.04;70.31
75010;DHT22;63564;46.840;18.336;2023-04-05T05:39:24;-0.97;69.30
75010;DHT22;63564;46.840;18.336;2023-04-05T05:42:25;-0.89;69.21
75010;DHT22;63564;46.840;18.336;2023-04-05T05:45:31;-0.81;68.43
75010;DHT22;63564;46.840;18.336;2023-04-05T05:48:32;-0.77;69.35
75010;DHT22;63564;46.840;18.336;2023-04-05T05:51:32;-0.61;67.79
75010;DHT22;63564;46.840;18.336;2023-04-05T05:54:33;-0.56;67.28
75010;DHT22;63564;46.840;18.336;2023-04-05T05:57:33;-0.41;66.56
75010;DHT22;63564;46.840;18.336;2023-04-05T06:00:33;-0.32;64.88
75010;DHT22;63564;46.840;18.336;2023-04-05T06:03:34;-0.25;63.63
75010;DHT22;63564;46.840;18.336;2023-04-05T06:06:34;-0.25;63.31
75010;DHT22;63564;46.840;18.336;2023-04-05T06:09:35;-0.23;63.16
75010;DHT22;63564;46.840;18.336;2023-04-05T06:12:35;-0.19;63.16
75010;DHT22;63564;46.840;18.336;2023-04-05T06:15:35;0.02;63.51
75010;DHT22;63564;46.840;18.336;2023-04-05T06:18:36;-0.01;62.71
75010;DHT22;63564;46.840;18.336;2023-04-05T06:21:36;0.05;61.59
75010;DHT22;63564;46.840;18.336;2023-04-05T06:24:36;0.15;61.92
75010;DHT22;63564;46.840;18.336;2023-04-05T06:27:37;0.32;61.54
75010;DHT22;63564;46.840;18.336;2023-04-05T06:30:37;0.46;61.57
75010;DHT22;63564;46.840;18.336;2023-04-05T06:33:38;0.56;60.38
75010;DHT22;63564;46.840;18.336;2023-04-05T06:36:38;0.54;59.69
75010;DHT22;63564;46.840;18.336;2023-04-05T06:39:39;0.63;60.10
75010;DHT22;63564;46.840;18.336;2023-04-05T06:42:39;0.68;59.76
75010;DHT22;63564;46.840;18.336;2023-04-05T06:45:41;0.83;59.38
75010;DHT22;63564;46.840;18.336;2023-04-05T06:48:42;0.92;59.48
75010;DHT22;63564;46.840;18.336;2023-04-05T06:51:43;1.16;59.69
75010;DHT22;63564;46.840;18.336;2023-04-05T06:54:43;1.39;59.55
75010;DHT22;63564;46.840;18.336;2023-04-05T06:57:44;1.60;59.85
75010;DHT22;63564;46.840;18.336;2023-04-05T07:00:45;1.70;57.89
75010;DHT22;63564;46.840;18.336;2023-04-05T07:03:46;1.78;58.76
75010;DHT22;63564;46.840;18.336;2023-04-05T07:06:46;1.75;58.64
75010;DHT22;63564;46.840;18.336;2023-04-05T07:09:46;1.98;57.11
75010;DHT22;63564;46.840;18.336;2023-04-05T07:12:47;2.08;57.64
75010;DHT22;63564;46.840;18.336;2023-04-05T07:15:47;2.26;56.65
75010;DHT22;63564;46.840;18.336;2023-04-05T07:18:48;2.35;57.96
75010;DHT22;63564;46.840;18.336;2023-04-05T07:21:49;2.45;55.63
75010;DHT22;63564;46.840;18.336;2023-04-05T07:24:49;2.56;56.12
75010;DHT22;63564;46.840;18.336;2023-04-05T07:27:51;2.66;55.35
75010;DHT22;63564;46.840;18.336;2023-04-05T07:30:51;2.58;57.04
75010;DHT22;63564;46.840;18.336;2023-04-05T07:33:52;2.66;55.93
75010;DHT22;63564;46.840;18.336;2023-04-05T07:36:52;2.87;54.77
75010;DHT22;63564;46.840;18.336;2023-04-05T07:39:53;2.98;54.51
75010;DHT22;63564;46.840;18.336;2023-04-05T07:42:53;3.21;54.77
75010;DHT22;63564;46.840;18.336;2023-04-05T07:46:00;3.16;54.70
75010;DHT22;63564;46.840;18.336;2023-04-05T07:49:01;3.42;55.04
75010;DHT22;63564;46.840;18.336;2023-04-05T07:52:01;3.71;54.01
75010;DHT22;63564;46.840;18.336;2023-04-05T07:55:02;3.60;52.96
75010;DHT22;63564;46.840;18.336;2023-04-05T07:58:02;3.71;54.15
75010;DHT22;63564;46.840;18.336;2023-04-05T08:01:03;3.59;53.89
75010;DHT22;63564;46.840;18.336;2023-04-05T08:04:04;4.09;52.55
75010;DHT22;63564;46.840;18.336;2023-04-05T08:07:04;4.24;52.90
75010;DHT22;63564;46.840;18.336;2023-04-05T08:10:05;4.53;51.89
75010;DHT22;63564;46.840;18.336;2023-04-05T08:13:05;4.59;53.49
75010;DHT22;63564;46.840;18.336;2023-04-05T08:16:10;4.77;51.77
75010;DHT22;63564;46.840;18.336;2023-04-05T08:19:11;4.28;51.59
75010;DHT22;63564;46.840;18.336;2023-04-05T08:22:12;4.53;50.29
75010;DHT22;63564;46.840;18.336;2023-04-05T08:25:12;4.09;51.17
75010;DHT22;63564;46.840;18.336;2023-04-05T08:28:13;4.70;50.41
75010;DHT22;63564;46.840;18.336;2023-04-05T08:31:13;4.77;49.43
75010;DHT22;63564;46.840;18.336;2023-04-05T08:34:13;4.53;49.47
75010;DHT22;63564;46.840;18.336;2023-04-05T08:37:14;4.94;47.83
75010;DHT22;63564;46.840;18.336;2023-04-05T08:40:14;5.22;47.22
75010;DHT22;63564;46.840;18.336;2023-04-05T08:43:33;5.66;49.42
75010;DHT22;63564;46.840;18.336;2023-04-05T08:46:36;5.28;46.46
75010;DHT22;63564;46.840;18.336;2023-04-05T08:49:41;5.15;47.20
75010;DHT22;63564;46.840;18.336;2023-04-05T08:52:42;5.32;47.40
75010;DHT22;63564;46.840;18.336;2023-04-05T08:55:50;5.62;46.74
75010;DHT22;63564;46.840;18.336;2023-04-05T08:58:58;5.52;44.93
75010;DHT22;63564;46.840;18.336;2023-04-05T09:02:03;5.31;46.07
75010;DHT22;63564;46.840;18.336;2023-04-05T09:05:08;5.62;46.76
75010;DHT22;63564;46.840;18.336;2023-04-05T09:08:08;5.98;45.14
75010;DHT22;63564;46.840;18.336;2023-04-05T09:11:11;5.83;46.17
75010;DHT22;63564;46.840;18.336;2023-04-05T09:14:11;5.97;44.08
75010;DHT22;63564;46.840;18.336;2023-04-05T09:17:12;6.20;45.66
75010;DHT22;63564;46.840;18.336;2023-04-05T09:20:13;6.17;47.49
75010;DHT22;63564;46.840;18.336;2023-04-05T09:23:14;5.86;45.80
75010;DHT22;63564;46.840;18.336;2023-04-05T09:29:28;6.93;47.12
75010;DHT22;63564;46.840;18.336;2023-04-05T09:32:29;6.55;44.03
75010;DHT22;63564;46.840;18.336;2023-04-05T09:35:31;6.55;43.59
75010;DHT22;63564;46.840;18.336;2023-04-05T09:38:43;6.72;46.17
75010;DHT22;63564;46.840;18.336;2023-04-05T09:42:07;6.75;44.95
75010;DHT22;63564;46.840;18.336;2023-04-05T09:45:08;7.21;44.02
75010;DHT22;63564;46.840;18.336;2023-04-05T09:48:09;7.39;42.05
75010;DHT22;63564;46.840;18.336;2023-04-05T09:51:09;6.41;43.43
75010;DHT22;63564;46.840;18.336;2023-04-05T09:54:10;6.69;42.82
75010;DHT22;63564;46.840;18.336;2023-04-05T09:57:10;6.59;43.62
75010;DHT22;63564;46.840;18.336;2023-04-05T10:00:20;6.41;44.99
75010;DHT22;63564;46.840;18.336;2023-04-05T10:03:24;6.83;44.16
75010;DHT22;63564;46.840;18.336;2023-04-05T10:06:41;7.10;42.46
75010;DHT22;63564;46.840;18.336;2023-04-05T10:09:44;8.04;40.61
75010;DHT22;63564;46.840;18.336;2023-04-05T10:12:45;8.52;41.18
75010;DHT22;63564;46.840;18.336;2023-04-05T10:15:49;8.54;39.93
75010;DHT22;63564;46.840;18.336;2023-04-05T10:18:51;8.33;42.02
75010;DHT22;63564;46.840;18.336;2023-04-05T10:21:53;8.55;38.80
75010;DHT22;63564;46.840;18.336;2023-04-05T10:25:01;7.94;39.68
75010;DHT22;63564;46.840;18.336;2023-04-05T10:28:09;7.91;40.69
75010;DHT22;63564;46.840;18.336;2023-04-05T10:31:27;8.15;39.69
75010;DHT22;63564;46.840;18.336;2023-04-05T10:41:16;9.49;37.49
75010;DHT22;63564;46.840;18.336;2023-04-05T10:44:16;9.49;39.08
75010;DHT22;63564;46.840;18.336;2023-04-05T10:47:18;10.20;37.08
75010;DHT22;63564;46.840;18.336;2023-04-05T10:50:22;9.27;39.86
75010;DHT22;63564;46.840;18.336;2023-04-05T10:53:24;9.66;37.80
75010;DHT22;63564;46.840;18.336;2023-04-05T10:56:25;8.55;38.45
75010;DHT22;63564;46.840;18.336;2023-04-05T10:59:26;9.06;40.43
75010;DHT22;63564;46.840;18.336;2023-04-05T11:02:28;9.41;37.88
75010;DHT22;63564;46.840;18.336;2023-04-05T11:05:31;9.79;37.67
75010;DHT22;63564;46.840;18.336;2023-04-05T11:08:32;9.16;37.71
75010;DHT22;63564;46.840;18.336;2023-04-05T11:11:40;8.61;38.54
75010;DHT22;63564;46.840;18.336;2023-04-05T11:14:41;9.35;39.74
75010;DHT22;63564;46.840;18.336;2023-04-05T11:17:43;9.97;39.43
75010;DHT22;63564;46.840;18.336;2023-04-05T11:20:50;9.45;39.19
75010;DHT22;63564;46.840;18.336;2023-04-05T11:27:08;9.78;37.65
75010;DHT22;63564;46.840;18.336;2023-04-05T11:30:09;9.96;37.25
75010;DHT22;63564;46.840;18.336;2023-04-05T11:33:10;9.39;37.76
75010;DHT22;63564;46.840;18.336;2023-04-05T11:36:10;9.62;38.55
75010;DHT22;63564;46.840;18.336;2023-04-05T11:42:18;9.69;37.25
75010;DHT22;63564;46.840;18.336;2023-04-05T11:45:20;10.12;34.23
75010;DHT22;63564;46.840;18.336;2023-04-05T11:48:22;10.07;41.42
75010;DHT22;63564;46.840;18.336;2023-04-05T11:51:22;10.47;36.56
75010;DHT22;63564;46.840;18.336;2023-04-05T11:54:29;10.79;35.31
75010;DHT22;63564;46.840;18.336;2023-04-05T11:57:30;10.27;38.47
75010;DHT22;63564;46.840;18.336;2023-04-05T12:00:30;10.76;33.24
75010;DHT22;63564;46.840;18.336;2023-04-05T12:03:31;10.34;35.63
75010;DHT22;63564;46.840;18.336;2023-04-05T12:06:32;10.86;35.87
75010;DHT22;63564;46.840;18.336;2023-04-05T12:09:32;11.20;34.75
75010;DHT22;63564;46.840;18.336;2023-04-05T12:12:38;9.69;38.43
75010;DHT22;63564;46.840;18.336;2023-04-05T12:15:39;9.75;36.89
75010;DHT22;63564;46.840;18.336;2023-04-05T12:18:40;9.95;36.50
75010;DHT22;63564;46.840;18.336;2023-04-05T12:21:40;10.00;32.57
75010;DHT22;63564;46.840;18.336;2023-04-05T12:24:41;10.24;34.12
75010;DHT22;63564;46.840;18.336;2023-04-05T12:27:41;10.51;35.88
75010;DHT22;63564;46.840;18.336;2023-04-05T12:30:49;11.88;33.04
75010;DHT22;63564;46.840;18.336;2023-04-05T12:33:50;10.98;35.16
75010;DHT22;63564;46.840;18.336;2023-04-05T12:36:50;12.32;31.50
75010;DHT22;63564;46.840;18.336;2023-04-05T12:39:53;12.03;30.49
75010;DHT22;63564;46.840;18.336;2023-04-05T12:43:03;12.61;29.86
75010;DHT22;63564;46.840;18.336;2023-04-05T12:46:14;12.68;27.92
75010;DHT22;63564;46.840;18.336;2023-04-05T12:49:16;12.81;28.72
75010;DHT22;63564;46.840;18.336;2023-04-05T12:52:20;13.09;28.79
75010;DHT22;63564;46.840;18.336;2023-04-05T12:55:21;12.06;30.00
75010;DHT22;63564;46.840;18.336;2023-04-05T12:58:30;12.88;30.94
75010;DHT22;63564;46.840;18.336;2023-04-05T13:01:31;13.29;29.98
75010;DHT22;63564;46.840;18.336;2023-04-05T13:04:32;12.49;30.91
75010;DHT22;63564;46.840;18.336;2023-04-05T13:07:32;11.57;30.73
75010;DHT22;63564;46.840;18.336;2023-04-05T13:10:32;11.94;32.79
75010;DHT22;63564;46.840;18.336;2023-04-05T13:13:33;12.16;32.00
75010;DHT22;63564;46.840;18.336;2023-04-05T13:16:33;12.51;29.60
75010;DHT22;63564;46.840;18.336;2023-04-05T13:19:34;13.27;27.21
75010;DHT22;63564;46.840;18.336;2023-04-05T13:22:34;11.98;28.61
75010;DHT22;63564;46.840;18.336;2023-04-05T13:25:38;13.78;26.56
75010;DHT22;63564;46.840;18.336;2023-04-05T13:28:39;13.44;26.51
75010;DHT22;63564;46.840;18.336;2023-04-05T13:31:39;13.60;27.20
75010;DHT22;63564;46.840;18.336;2023-04-05T13:34:40;13.40;26.21
75010;DHT22;63564;46.840;18.336;2023-04-05T13:37:40;13.46;26.87
75010;DHT22;63564;46.840;18.336;2023-04-05T13:40:41;11.91;27.34
75010;DHT22;63564;46.840;18.336;2023-04-05T13:43:41;13.25;28.16
75010;DHT22;63564;46.840;18.336;2023-04-05T13:46:41;13.81;28.75
75010;DHT22;63564;46.840;18.336;2023-04-05T13:49:42;13.19;27.82
75010;DHT22;63564;46.840;18.336;2023-04-05T13:52:42;11.96;32.04
75010;DHT22;63564;46.840;18.336;2023-04-05T13:55:43;13.35;27.16
75010;DHT22;63564;46.840;18.336;2023-04-05T13:58:43;13.73;25.35
75010;DHT22;63564;46.840;18.336;2023-04-05T14:01:47;12.94;27.39
75010;DHT22;63564;46.840;18.336;2023-04-05T14:04:48;13.87;26.51
75010;DHT22;63564;46.840;18.336;2023-04-05T14:07:48;14.70;25.33
75010;DHT22;63564;46.840;18.336;2023-04-05T14:10:49;14.28;25.79
75010;DHT22;63564;46.840;18.336;2023-04-05T14:13:50;14.01;26.23
75010;DHT22;63564;46.840;18.336;2023-04-05T14:16:50;14.93;25.74
75010;DHT22;63564;46.840;18.336;2023-04-05T14:19:51;14.24;27.09
75010;DHT22;63564;46.840;18.336;2023-04-05T14:22:51;15.27;26.40
75010;DHT22;63564;46.840;18.336;2023-04-05T14:25:52;13.87;27.81
75010;DHT22;63564;46.840;18.336;2023-04-05T14:28:52;14.75;24.61
75010;DHT22;63564;46.840;18.336;2023-04-05T14:31:53;14.66;24.58
75010;DHT22;63564;46.840;18.336;2023-04-05T14:34:54;14.98;24.09
75010;DHT22;63564;46.840;18.336;2023-04-05T14:37:55;15.12;25.36
75010;DHT22;63564;46.840;18.336;2023-04-05T14:40:55;13.60;25.77
75010;DHT22;63564;46.840;18.336;2023-04-05T14:43:56;14.90;25.11
75010;DHT22;63564;46.840;18.336;2023-04-05T14:46:56;12.83;26.85
75010;DHT22;63564;46.840;18.336;2023-04-05T14:49:57;13.11;27.59
75010;DHT22;63564;46.840;18.336;2023-04-05T14:53:00;14.15;27.64
75010;DHT22;63564;46.840;18.336;2023-04-05T14:56:01;13.95;27.96
75010;DHT22;63564;46.840;18.336;2023-04-05T14:59:01;13.88;27.89
75010;DHT22;63564;46.840;18.336;2023-04-05T15:02:02;13.70;26.43
75010;DHT22;63564;46.840;18.336;2023-04-05T15:05:03;13.20;27.85
75010;DHT22;63564;46.840;18.336;2023-04-05T15:08:04;12.85;26.03
75010;DHT22;63564;46.840;18.336;2023-04-05T15:11:04;11.74;30.73
75010;DHT22;63564;46.840;18.336;2023-04-05T15:14:06;10.58;30.50
75010;DHT22;63564;46.840;18.336;2023-04-05T15:17:06;11.34;31.74
75010;DHT22;63564;46.840;18.336;2023-04-05T15:20:07;10.21;31.01
75010;DHT22;63564;46.840;18.336;2023-04-05T15:23:07;10.58;31.21
75010;DHT22;63564;46.840;18.336;2023-04-05T15:26:08;10.17;32.30
75010;DHT22;63564;46.840;18.336;2023-04-05T15:29:08;10.30;32.28
75010;DHT22;63564;46.840;18.336;2023-04-05T15:32:08;10.29;29.97
75010;DHT22;63564;46.840;18.336;2023-04-05T15:35:09;10.73;30.09
75010;DHT22;63564;46.840;18.336;2023-04-05T15:38:09;10.58;31.41
75010;DHT22;63564;46.840;18.336;2023-04-05T15:41:10;10.65;30.49
75010;DHT22;63564;46.840;18.336;2023-04-05T15:44:11;10.58;31.99
75010;DHT22;63564;46.840;18.336;2023-04-05T15:47:11;10.72;34.19
75010;DHT22;63564;46.840;18.336;2023-04-05T15:50:12;10.12;31.01
75010;DHT22;63564;46.840;18.336;2023-04-05T15:53:12;10.34;31.59
75010;DHT22;63564;46.840;18.336;2023-04-05T15:56:12;11.34;29.57
75010;DHT22;63564;46.840;18.336;2023-04-05T15:59:13;10.50;31.05
75010;DHT22;63564;46.840;18.336;2023-04-05T16:02:13;10.23;30.56
75010;DHT22;63564;46.840;18.336;2023-04-05T16:05:14;10.05;30.73
75010;DHT22;63564;46.840;18.336;2023-04-05T16:08:14;10.21;30.55
75010;DHT22;63564;46.840;18.336;2023-04-05T16:11:14;10.23;30.41
75010;DHT22;63564;46.840;18.336;2023-04-05T16:14:16;9.92;32.03
75010;DHT22;63564;46.840;18.336;2023-04-05T16:17:16;8.96;31.99
75010;DHT22;63564;46.840;18.336;2023-04-05T16:20:17;9.23;35.23
75010;DHT22;63564;46.840;18.336;2023-04-05T16:23:17;8.90;33.63
75010;DHT22;63564;46.840;18.336;2023-04-05T16:26:18;9.23;34.37
75010;DHT22;63564;46.840;18.336;2023-04-05T16:29:18;10.13;31.46
75010;DHT22;63564;46.840;18.336;2023-04-05T16:32:18;9.79;32.67
75010;DHT22;63564;46.840;18.336;2023-04-05T16:35:19;9.32;33.19
75010;DHT22;63564;46.840;18.336;2023-04-05T16:38:19;8.82;34.38
75010;DHT22;63564;46.840;18.336;2023-04-05T16:41:20;8.84;34.23
75010;DHT22;63564;46.840;18.336;2023-04-05T16:44:20;8.55;34.91
75010;DHT22;63564;46.840;18.336;2023-04-05T16:47:21;8.56;34.99
75010;DHT22;63564;46.840;18.336;2023-04-05T16:50:21;8.66;34.61
75010;DHT22;63564;46.840;18.336;2023-04-05T16:53:21;8.58;34.45
75010;DHT22;63564;46.840;18.336;2023-04-05T16:56:22;8.40;35.23
75010;DHT22;63564;46.840;18.336;2023-04-05T16:59:23;8.03;35.76
75010;DHT22;63564;46.840;18.336;2023-04-05T17:02:24;7.72;37.33
75010;DHT22;63564;46.840;18.336;2023-04-05T17:05:24;7.44;36.94
75010;DHT22;63564;46.840;18.336;2023-04-05T17:08:25;7.25;37.90
75010;DHT22;63564;46.840;18.336;2023-04-05T17:11:26;7.14;37.48
75010;DHT22;63564;46.840;18.336;2023-04-05T17:14:27;6.87;38.24
75010;DHT22;63564;46.840;18.336;2023-04-05T17:17:28;6.73;38.18
75010;DHT22;63564;46.840;18.336;2023-04-05T17:20:28;6.68;38.54
75010;DHT22;63564;46.840;18.336;2023-04-05T17:23:28;6.59;38.46
75010;DHT22;63564;46.840;18.336;2023-04-05T17:26:29;6.36;38.68
75010;DHT22;63564;46.840;18.336;2023-04-05T17:29:29;6.21;39.72
75010;DHT22;63564;46.840;18.336;2023-04-05T17:32:29;6.07;41.29
75010;DHT22;63564;46.840;18.336;2023-04-05T17:35:30;5.87;40.42
75010;DHT22;63564;46.840;18.336;2023-04-05T17:38:30;5.80;40.23
75010;DHT22;63564;46.840;18.336;2023-04-05T17:41:31;5.73;41.40
75010;DHT22;63564;46.840;18.336;2023-04-05T17:44:31;5.59;43.34
75010;DHT22;63564;46.840;18.336;2023-04-05T17:47:32;5.01;47.29
75010;DHT22;63564;46.840;18.336;2023-04-05T17:50:34;4.84;50.32
75010;DHT22;63564;46.840;18.336;2023-04-05T17:53:34;4.59;46.35
75010;DHT22;63564;46.840;18.336;2023-04-05T17:56:35;4.50;47.45
75010;DHT22;63564;46.840;18.336;2023-04-05T17:59:36;4.42;48.27
75010;DHT22;63564;46.840;18.336;2023-04-05T18:02:37;4.35;47.15
75010;DHT22;63564;46.840;18.336;2023-04-05T18:05:39;4.31;46.54
75010;DHT22;63564;46.840;18.336;2023-04-05T18:08:40;4.29;46.91
75010;DHT22;63564;46.840;18.336;2023-04-05T18:11:40;4.16;47.50
75010;DHT22;63564;46.840;18.336;2023-04-05T18:14:41;4.16;49.16
75010;DHT22;63564;46.840;18.336;2023-04-05T18:17:41;4.18;48.40
75010;DHT22;63564;46.840;18.336;2023-04-05T18:20:43;4.19;49.90
75010;DHT22;63564;46.840;18.336;2023-04-05T18:23:44;3.94;50.62
75010;DHT22;63564;46.840;18.336;2023-04-05T18:26:44;3.81;52.96
75010;DHT22;63564;46.840;18.336;2023-04-05T18:29:45;3.87;49.96
75010;DHT22;63564;46.840;18.336;2023-04-05T18:32:45;3.97;48.37
75010;DHT22;63564;46.840;18.336;2023-04-05T18:35:49;4.18;48.38
75010;DHT22;63564;46.840;18.336;2023-04-05T18:38:53;4.41;47.76
75010;DHT22;63564;46.840;18.336;2023-04-05T18:41:55;4.45;48.93
75010;DHT22;63564;46.840;18.336;2023-04-05T18:44:55;4.45;47.51
75010;DHT22;63564;46.840;18.336;2023-04-05T18:47:55;4.31;49.09
75010;DHT22;63564;46.840;18.336;2023-04-05T18:50:56;4.22;48.33
75010;DHT22;63564;46.840;18.336;2023-04-05T18:53:56;4.14;48.56
75010;DHT22;63564;46.840;18.336;2023-04-05T18:56:57;4.02;49.27
75010;DHT22;63564;46.840;18.336;2023-04-05T18:59:58;4.05;49.94
75010;DHT22;63564;46.840;18.336;2023-04-05T19:02:58;3.87;50.04
75010;DHT22;63564;46.840;18.336;2023-04-05T19:05:59;3.71;51.06
75010;DHT22;63564;46.840;18.336;2023-04-05T19:09:00;3.42;52.55
75010;DHT22;63564;46.840;18.336;2023-04-05T19:12:00;3.49;52.03
75010;DHT22;63564;46.840;18.336;2023-04-05T19:15:01;3.48;52.39
75010;DHT22;63564;46.840;18.336;2023-04-05T19:18:02;3.40;52.28
75010;DHT22;63564;46.840;18.336;2023-04-05T19:21:02;3.35;52.84
75010;DHT22;63564;46.840;18.336;2023-04-05T19:24:03;3.32;53.61